sensor_id;sensor_type;location;lat;lon;timestamp;temperature;humidity
9219;DHT22;4644;48.858;9.184;2023-02-03T00:00:30;6.10;99.90
9219;DHT22;4644;48.858;9.184;2023-02-03T00:02:57;6.10;99.90
9219;DHT22;4644;48.858;9.184;2023-02-03T00:05:25;6.10;99.90
9219;DHT22;4644;48.858;9.184;2023-02-03T00:07:53;6.10;99.90
9219;DHT22;4644;48.858;9.184;2023-02-03T00:10:20;6.10;99.90
9219;DHT22;4644;48.858;9.184;2023-02-03T00:12:48;6.10;99.90
9219;DHT22;4644;48.858;9.184;2023-02-03T00:15:15;6.10;99.90
9219;DHT22;4644;48.858;9.184;2023-02-03T00:17:42;6.10;99.90
9219;DHT22;4644;48.858;9.184;2023-02-03T00:20:10;6.00;99.90
9219;DHT22;4644;48.858;9.184;2023-02-03T00:22:41;6.10;99.90
9219;DHT22;4644;48.858;9.184;2023-02-03T00:25:08;6.00;99.90
9219;DHT22;4644;48.858;9.184;2023-02-03T00:27:35;6.10;99.90
9219;DHT22;4644;48.858;9.184;2023-02-03T00:30:02;6.10;99.90
9219;DHT22;4644;48.858;9.184;2023-02-03T00:32:31;6.10;99.90
9219;DHT22;4644;48.858;9.184;2023-02-03T00:34:58;6.10;99.90
9219;DHT22;4644;48.858;9.184;2023-02-03T00:37:24;6.00;99.90
9219;DHT22;4644;48.858;9.184;2023-02-03T00:39:53;6.00;99.90
9219;DHT22;4644;48.858;9.184;2023-02-03T00:42:20;6.10;99.90
9219;DHT22;4644;48.858;9.184;2023-02-03T00:44:47;6.10;99.90
9219;DHT22;4644;48.858;9.184;2023-02-03T00:47:14;6.10;99.90
9219;DHT22;4644;48.858;9.184;2023-02-03T00:49:41;6.10;99.90
9219;DHT22;4644;48.858;9.184;2023-02-03T00:52:08;6.10;99.90
9219;DHT22;4644;48.858;9.184;2023-02-03T00:54:35;6.00;99.90
9219;DHT22;4644;48.858;9.184;2023-02-03T00:57:03;6.10;99.90
9219;DHT22;4644;48.858;9.184;2023-02-03T00:59:30;6.10;99.90
9219;DHT22;4644;48.858;9.184;2023-02-03T01:01:57;6.10;99.90
9219;DHT22;4644;48.858;9.184;2023-02-03T01:04:24;6.10;99.90
9219;DHT22;4644;48.858;9.184;2023-02-03T01:06:51;6.10;99.90
9219;DHT22;4644;48.858;9.184;2023-02-03T01:09:20;6.10;99.90
9219;DHT22;4644;48.858;9.184;2023-02-03T01:11:47;6.10;99.90
9219;DHT22;4644;48.858;9.184;2023-02-03T01:14:16;6.10;99.90
9219;DHT22;4644;48.858;9.184;2023-02-03T01:16:43;6.10;99.90
9219;DHT22;4644;48.858;9.184;2023-02-03T01:19:10;6.10;99.90
9219;DHT22;4644;48.858;9.184;2023-02-03T01:21:36;6.10;99.90
9219;DHT22;4644;48.858;9.184;2023-02-03T01:24:04;6.10;99.90
9219;DHT22;4644;48.858;9.184;2023-02-03T01:26:31;6.10;99.90
9219;DHT22;4644;48.858;9.184;2023-02-03T01:28:58;6.10;99.90
9219;DHT22;4644;48.858;9.184;2023-02-03T01:31:29;6.10;99.90
9219;DHT22;4644;48.858;9.184;2023-02-03T01:33:57;6.10;99.90
9219;DHT22;4644;48.858;9.184;2023-02-03T01:36:26;6.10;99.90
9219;DHT22;4644;48.858;9.184;2023-02-03T01:38:54;6.10;99.90
9219;DHT22;4644;48.858;9.184;2023-02-03T01:41:22;6.10;99.90
9219;DHT22;4644;48.858;9.184;2023-02-03T01:43:52;6.10;99.90
9219;DHT22;4644;48.858;9.184;2023-02-03T01:46:30;6.10;99.90
9219;DHT22;4644;48.858;9.184;2023-02-03T01:49:05;6.10;99.90
9219;DHT22;4644;48.858;9.184;2023-02-03T01:51:34;6.10;99.90
9219;DHT22;4644;48.858;9.184;2023-02-03T01:54:03;6.10;99.90
9219;DHT22;4644;48.858;9.184;2023-02-03T01:56:34;6.10;99.90
9219;DHT22;4644;48.858;9.184;2023-02-03T01:59:03;6.10;99.90
9219;DHT22;4644;48.858;9.184;2023-02-03T02:01:32;6.20;99.90
9219;DHT22;4644;48.858;9.184;2023-02-03T02:04:02;6.30;99.90
9219;DHT22;4644;48.858;9.184;2023-02-03T02:06:30;6.30;99.90
9219;DHT22;4644;48.858;9.184;2023-02-03T02:08:57;6.30;99.90
9219;DHT22;4644;48.858;9.184;2023-02-03T02:11:26;6.30;99.90
9219;DHT22;4644;48.858;9.184;2023-02-03T02:13:57;6.30;99.90
9219;DHT22;4644;48.858;9.184;2023-02-03T02:16:34;6.30;99.90
9219;DHT22;4644;48.858;9.184;2023-02-03T02:19:36;6.30;99.90
9219;DHT22;4644;48.858;9.184;2023-02-03T02:22:13;6.30;99.90
9219;DHT22;4644;48.858;9.184;2023-02-03T02:25:17;6.30;99.90
9219;DHT22;4644;48.858;9.184;2023-02-03T02:31:05;6.30;99.90
9219;DHT22;4644;48.858;9.184;2023-02-03T02:33:45;6.30;99.90
9219;DHT22;4644;48.858;9.184;2023-02-03T02:36:24;6.30;99.90
9219;DHT22;4644;48.858;9.184;2023-02-03T02:38:58;6.30;99.90
9219;DHT22;4644;48.858;9.184;2023-02-03T02:41:33;6.30;99.90
9219;DHT22;4644;48.858;9.184;2023-02-03T02:44:06;6.30;99.90
9219;DHT22;4644;48.858;9.184;2023-02-03T02:46:37;6.30;99.90
9219;DHT22;4644;48.858;9.184;2023-02-03T02:49:13;6.30;99.90
9219;DHT22;4644;48.858;9.184;2023-02-03T02:51:43;6.30;99.90
9219;DHT22;4644;48.858;9.184;2023-02-03T02:54:15;6.30;99.90
9219;DHT22;4644;48.858;9.184;2023-02-03T02:56:47;6.30;99.90
9219;DHT22;4644;48.858;9.184;2023-02-03T02:59:15;6.30;99.90
9219;DHT22;4644;48.858;9.184;2023-02-03T03:01:42;6.30;99.90
9219;DHT22;4644;48.858;9.184;2023-02-03T03:04:11;6.30;99.90
9219;DHT22;4644;48.858;9.184;2023-02-03T03:06:41;6.30;99.90
9219;DHT22;4644;48.858;9.184;2023-02-03T03:09:11;6.30;99.90
9219;DHT22;4644;48.858;9.184;2023-02-03T03:11:41;6.30;99.90
9219;DHT22;4644;48.858;9.184;2023-02-03T03:14:09;6.40;99.90
9219;DHT22;4644;48.858;9.184;2023-02-03T03:16:41;6.30;99.90
9219;DHT22;4644;48.858;9.184;2023-02-03T03:19:14;6.30;99.90
9219;DHT22;4644;48.858;9.184;2023-02-03T03:21:49;6.30;99.90
9219;DHT22;4644;48.858;9.184;2023-02-03T03:24:23;6.40;99.90
9219;DHT22;4644;48.858;9.184;2023-02-03T03:26:54;6.40;99.90
9219;DHT22;4644;48.858;9.184;2023-02-03T03:29:29;6.40;99.90
9219;DHT22;4644;48.858;9.184;2023-02-03T03:31:57;6.40;99.90
9219;DHT22;4644;48.858;9.184;2023-02-03T03:34:25;6.30;99.90
9219;DHT22;4644;48.858;9.184;2023-02-03T03:36:57;6.30;99.90
9219;DHT22;4644;48.858;9.184;2023-02-03T03:39:31;6.40;99.90
9219;DHT22;4644;48.858;9.184;2023-02-03T03:42:05;6.30;99.90
9219;DHT22;4644;48.858;9.184;2023-02-03T03:44:39;6.40;99.90
9219;DHT22;4644;48.858;9.184;2023-02-03T03:47:13;6.40;99.90
9219;DHT22;4644;48.858;9.184;2023-02-03T03:49:46;6.40;99.90
9219;DHT22;4644;48.858;9.184;2023-02-03T03:52:15;6.30;99.90
9219;DHT22;4644;48.858;9.184;2023-02-03T03:54:45;6.30;99.90
9219;DHT22;4644;48.858;9.184;2023-02-03T03:57:15;6.40;99.90
9219;DHT22;4644;48.858;9.184;2023-02-03T03:59:46;6.30;99.90
9219;DHT22;4644;48.858;9.184;2023-02-03T04:02:15;6.30;99.90
9219;DHT22;4644;48.858;9.184;2023-02-03T04:04:45;6.40;99.90
9219;DHT22;4644;48.858;9.184;2023-02-03T04:07:13;6.40;99.90
9219;DHT22;4644;48.858;9.184;2023-02-03T04:09:40;6.30;99.90
9219;DHT22;4644;48.858;9.184;2023-02-03T04:12:15;6.40;99.90
9219;DHT22;4644;48.858;9.184;2023-02-03T04:14:43;6.40;99.90
9219;DHT22;4644;48.858;9.184;2023-02-03T04:17:10;6.40;99.90
9219;DHT22;4644;48.858;9.184;2023-02-03T04:19:40;6.40;99.90
9219;DHT22;4644;48.858;9.184;2023-02-03T04:22:08;6.30;99.90
9219;DHT22;4644;48.858;9.184;2023-02-03T04:24:35;6.30;99.90
9219;DHT22;4644;48.858;9.184;2023-02-03T04:27:02;6.30;99.90
9219;DHT22;4644;48.858;9.184;2023-02-03T04:29:29;6.20;99.90
9219;DHT22;4644;48.858;9.184;2023-02-03T04:31:56;6.20;99.90
9219;DHT22;4644;48.858;9.184;2023-02-03T04:34:23;6.10;99.90
9219;DHT22;4644;48.858;9.184;2023-02-03T04:36:49;6.10;99.90
9219;DHT22;4644;48.858;9.184;2023-02-03T04:39:18;6.00;99.90
9219;DHT22;4644;48.858;9.184;2023-02-03T04:41:45;6.00;99.90
9219;DHT22;4644;48.858;9.184;2023-02-03T04:44:11;5.90;99.90
9219;DHT22;4644;48.858;9.184;2023-02-03T04:46:38;5.90;99.90
9219;DHT22;4644;48.858;9.184;2023-02-03T04:49:05;5.90;99.90
9219;DHT22;4644;48.858;9.184;2023-02-03T04:51:34;5.80;99.90
9219;DHT22;4644;48.858;9.184;2023-02-03T04:54:01;5.80;99.90
9219;DHT22;4644;48.858;9.184;2023-02-03T04:56:29;5.70;99.90
9219;DHT22;4644;48.858;9.184;2023-02-03T04:58:56;5.70;99.90
9219;DHT22;4644;48.858;9.184;2023-02-03T05:01:23;5.70;99.90
9219;DHT22;4644;48.858;9.184;2023-02-03T05:03:49;5.70;99.90
9219;DHT22;4644;48.858;9.184;2023-02-03T05:06:16;5.60;99.90
9219;DHT22;4644;48.858;9.184;2023-02-03T05:08:47;5.60;99.90
9219;DHT22;4644;48.858;9.184;2023-02-03T05:11:14;5.60;99.90
9219;DHT22;4644;48.858;9.184;2023-02-03T05:13:42;5.60;99.90
9219;DHT22;4644;48.858;9.184;2023-02-03T05:16:09;5.50;99.90
9219;DHT22;4644;48.858;9.184;2023-02-03T05:18:36;5.60;99.90
9219;DHT22;4644;48.858;9.184;2023-02-03T05:21:03;5.60;99.90
9219;DHT22;4644;48.858;9.184;2023-02-03T05:23:30;5.60;99.90
9219;DHT22;4644;48.858;9.184;2023-02-03T05:25:57;5.60;99.90
9219;DHT22;4644;48.858;9.184;2023-02-03T05:28:24;5.60;99.90
9219;DHT22;4644;48.858;9.184;2023-02-03T05:30:53;5.50;99.90
9219;DHT22;4644;48.858;9.184;2023-02-03T05:33:20;5.60;99.90
9219;DHT22;4644;48.858;9.184;2023-02-03T05:35:47;5.60;99.90
9219;DHT22;4644;48.858;9.184;2023-02-03T05:38:14;5.50;99.90
9219;DHT22;4644;48.858;9.184;2023-02-03T05:40:41;5.60;99.90
9219;DHT22;4644;48.858;9.184;2023-02-03T05:43:26;5.50;99.90
9219;DHT22;4644;48.858;9.184;2023-02-03T05:45:54;5.60;99.90
9219;DHT22;4644;48.858;9.184;2023-02-03T05:48:24;5.60;99.90
9219;DHT22;4644;48.858;9.184;2023-02-03T05:50:51;5.60;99.90
9219;DHT22;4644;48.858;9.184;2023-02-03T05:53:18;5.70;99.90
9219;DHT22;4644;48.858;9.184;2023-02-03T05:55:45;5.60;99.90
9219;DHT22;4644;48.858;9.184;2023-02-03T05:58:12;5.60;99.90
9219;DHT22;4644;48.858;9.184;2023-02-03T06:00:39;5.70;99.90
9219;DHT22;4644;48.858;9.184;2023-02-03T06:03:07;5.70;99.90
9219;DHT22;4644;48.858;9.184;2023-02-03T06:05:34;5.70;99.90
9219;DHT22;4644;48.858;9.184;2023-02-03T06:08:05;5.70;99.90
9219;DHT22;4644;48.858;9.184;2023-02-03T06:10:32;5.70;99.90
9219;DHT22;4644;48.858;9.184;2023-02-03T06:13:04;5.70;99.90
9219;DHT22;4644;48.858;9.184;2023-02-03T06:15:33;5.70;99.90
9219;DHT22;4644;48.858;9.184;2023-02-03T06:17:59;5.70;99.90
9219;DHT22;4644;48.858;9.184;2023-02-03T06:20:28;5.70;99.90
9219;DHT22;4644;48.858;9.184;2023-02-03T06:22:55;5.70;99.90
9219;DHT22;4644;48.858;9.184;2023-02-03T06:25:21;5.70;99.90
9219;DHT22;4644;48.858;9.184;2023-02-03T06:27:49;5.70;99.90
9219;DHT22;4644;48.858;9.184;2023-02-03T06:30:16;5.70;99.90
9219;DHT22;4644;48.858;9.184;2023-02-03T06:32:44;5.70;99.90
9219;DHT22;4644;48.858;9.184;2023-02-03T06:35:11;5.70;99.90
9219;DHT22;4644;48.858;9.184;2023-02-03T06:37:42;5.70;99.90
9219;DHT22;4644;48.858;9.184;2023-02-03T06:40:10;5.70;99.90
9219;DHT22;4644;48.858;9.184;2023-02-03T06:42:37;5.70;99.90
9219;DHT22;4644;48.858;9.184;2023-02-03T06:45:06;5.70;99.90
9219;DHT22;4644;48.858;9.184;2023-02-03T06:47:34;5.60;99.90
9219;DHT22;4644;48.858;9.184;2023-02-03T06:50:01;5.60;99.90
9219;DHT22;4644;48.858;9.184;2023-02-03T06:52:28;5.60;99.90
9219;DHT22;4644;48.858;9.184;2023-02-03T06:54:56;5.60;99.90
9219;DHT22;4644;48.858;9.184;2023-02-03T06:57:23;5.50;99.90
9219;DHT22;4644;48.858;9.184;2023-02-03T06:59:49;5.50;99.90
9219;DHT22;4644;48.858;9.184;2023-02-03T07:02:16;5.50;99.90
9219;DHT22;4644;48.858;9.184;2023-02-03T07:04:43;5.50;99.90
9219;DHT22;4644;48.858;9.184;2023-02-03T07:07:10;5.50;99.90
9219;DHT22;4644;48.858;9.184;2023-02-03T07:09:37;5.50;99.90
9219;DHT22;4644;48.858;9.184;2023-02-03T07:12:07;5.50;99.90
9219;DHT22;4644;48.858;9.184;2023-02-03T07:14:34;5.50;99.90
9219;DHT22;4644;48.858;9.184;2023-02-03T07:17:01;5.40;99.90
9219;DHT22;4644;48.858;9.184;2023-02-03T07:19:28;5.40;99.90
9219;DHT22;4644;48.858;9.184;2023-02-03T07:21:55;5.50;99.90
9219;DHT22;4644;48.858;9.184;2023-02-03T07:24:22;5.40;99.90
9219;DHT22;4644;48.858;9.184;2023-02-03T07:26:49;5.40;99.90
9219;DHT22;4644;48.858;9.184;2023-02-03T07:29:17;5.40;99.90
9219;DHT22;4644;48.858;9.184;2023-02-03T07:31:44;5.40;99.90
9219;DHT22;4644;48.858;9.184;2023-02-03T07:34:11;5.40;99.90
9219;DHT22;4644;48.858;9.184;2023-02-03T07:36:38;5.40;99.90
9219;DHT22;4644;48.858;9.184;2023-02-03T07:39:05;5.50;99.90
9219;DHT22;4644;48.858;9.184;2023-02-03T07:41:32;5.50;99.90
9219;DHT22;4644;48.858;9.184;2023-02-03T07:43:59;5.40;99.90
9219;DHT22;4644;48.858;9.184;2023-02-03T07:46:28;5.50;99.90
9219;DHT22;4644;48.858;9.184;2023-02-03T07:48:54;5.50;99.90
9219;DHT22;4644;48.858;9.184;2023-02-03T07:51:21;5.50;99.90
9219;DHT22;4644;48.858;9.184;2023-02-03T07:53:48;5.50;99.90
9219;DHT22;4644;48.858;9.184;2023-02-03T07:56:15;5.50;99.90
9219;DHT22;4644;48.858;9.184;2023-02-03T07:58:42;5.50;99.90
9219;DHT22;4644;48.858;9.184;2023-02-03T08:01:10;5.50;99.90
9219;DHT22;4644;48.858;9.184;2023-02-03T08:03:39;5.50;99.90
9219;DHT22;4644;48.858;9.184;2023-02-03T08:06:07;5.50;99.90
9219;DHT22;4644;48.858;9.184;2023-02-03T08:08:34;5.60;99.90
9219;DHT22;4644;48.858;9.184;2023-02-03T08:11:02;5.60;99.90
9219;DHT22;4644;48.858;9.184;2023-02-03T08:13:29;5.60;99.90
9219;DHT22;4644;48.858;9.184;2023-02-03T08:15:56;5.60;99.90
9219;DHT22;4644;48.858;9.184;2023-02-03T08:18:22;5.70;99.90
9219;DHT22;4644;48.858;9.184;2023-02-03T08:20:51;5.70;99.90
9219;DHT22;4644;48.858;9.184;2023-02-03T08:23:20;5.80;99.90
9219;DHT22;4644;48.858;9.184;2023-02-03T08:25:51;5.80;99.90
9219;DHT22;4644;48.858;9.184;2023-02-03T08:28:18;5.90;99.90
9219;DHT22;4644;48.858;9.184;2023-02-03T08:30:45;5.90;99.90
9219;DHT22;4644;48.858;9.184;2023-02-03T08:33:12;5.90;99.90
9219;DHT22;4644;48.858;9.184;2023-02-03T08:35:39;5.90;99.90
9219;DHT22;4644;48.858;9.184;2023-02-03T08:38:07;6.00;99.90
9219;DHT22;4644;48.858;9.184;2023-02-03T08:40:34;6.00;99.90
9219;DHT22;4644;48.858;9.184;2023-02-03T08:43:01;6.10;99.90
9219;DHT22;4644;48.858;9.184;2023-02-03T08:45:30;6.10;99.90
9219;DHT22;4644;48.858;9.184;2023-02-03T08:47:57;6.10;99.90
9219;DHT22;4644;48.858;9.184;2023-02-03T08:50:24;6.20;99.90
9219;DHT22;4644;48.858;9.184;2023-02-03T08:52:51;6.20;99.90
9219;DHT22;4644;48.858;9.184;2023-02-03T08:55:22;6.20;99.90
9219;DHT22;4644;48.858;9.184;2023-02-03T08:57:49;6.20;99.90
9219;DHT22;4644;48.858;9.184;2023-02-03T09:00:16;6.30;99.90
9219;DHT22;4644;48.858;9.184;2023-02-03T09:02:43;6.30;99.90
9219;DHT22;4644;48.858;9.184;2023-02-03T09:05:10;6.50;99.90
9219;DHT22;4644;48.858;9.184;2023-02-03T09:07:37;6.50;99.90
9219;DHT22;4644;48.858;9.184;2023-02-03T09:10:04;6.60;99.90
9219;DHT22;4644;48.858;9.184;2023-02-03T09:12:33;6.70;99.90
9219;DHT22;4644;48.858;9.184;2023-02-03T09:15:00;6.80;99.90
9219;DHT22;4644;48.858;9.184;2023-02-03T09:17:26;6.80;99.90
9219;DHT22;4644;48.858;9.184;2023-02-03T09:19:53;6.90;99.90
9219;DHT22;4644;48.858;9.184;2023-02-03T09:22:20;7.00;99.90
9219;DHT22;4644;48.858;9.184;2023-02-03T09:24:47;7.20;99.90
9219;DHT22;4644;48.858;9.184;2023-02-03T09:27:15;7.30;99.90
9219;DHT22;4644;48.858;9.184;2023-02-03T09:29:44;7.30;99.90
9219;DHT22;4644;48.858;9.184;2023-02-03T09:32:11;7.50;99.90
9219;DHT22;4644;48.858;9.184;2023-02-03T09:34:38;7.50;99.90
9219;DHT22;4644;48.858;9.184;2023-02-03T09:37:05;7.60;99.90
9219;DHT22;4644;48.858;9.184;2023-02-03T09:39:32;7.70;99.90
9219;DHT22;4644;48.858;9.184;2023-02-03T09:45:11;8.00;99.90
9219;DHT22;4644;48.858;9.184;2023-02-03T09:47:42;7.90;99.90
9219;DHT22;4644;48.858;9.184;2023-02-03T09:50:12;7.80;99.90
9219;DHT22;4644;48.858;9.184;2023-02-03T09:52:41;7.70;99.90
9219;DHT22;4644;48.858;9.184;2023-02-03T09:55:19;7.60;99.90
9219;DHT22;4644;48.858;9.184;2023-02-03T09:57:54;7.70;99.90
9219;DHT22;4644;48.858;9.184;2023-02-03T10:00:28;7.70;99.90
9219;DHT22;4644;48.858;9.184;2023-02-03T10:03:03;7.90;99.90
9219;DHT22;4644;48.858;9.184;2023-02-03T10:08:42;7.80;99.90
9219;DHT22;4644;48.858;9.184;2023-02-03T10:11:19;7.80;99.90
9219;DHT22;4644;48.858;9.184;2023-02-03T10:13:57;7.80;99.90
9219;DHT22;4644;48.858;9.184;2023-02-03T10:16:42;7.80;99.90
9219;DHT22;4644;48.858;9.184;2023-02-03T10:19:16;7.90;99.90
9219;DHT22;4644;48.858;9.184;2023-02-03T10:21:47;7.90;99.90
9219;DHT22;4644;48.858;9.184;2023-02-03T10:24:19;7.90;99.90
9219;DHT22;4644;48.858;9.184;2023-02-03T10:26:47;7.90;99.90
9219;DHT22;4644;48.858;9.184;2023-02-03T10:29:18;7.80;99.90
9219;DHT22;4644;48.858;9.184;2023-02-03T10:31:47;7.80;99.90
9219;DHT22;4644;48.858;9.184;2023-02-03T10:34:16;7.80;99.90
9219;DHT22;4644;48.858;9.184;2023-02-03T10:36:53;7.80;99.90
9219;DHT22;4644;48.858;9.184;2023-02-03T10:39:30;7.90;99.90
9219;DHT22;4644;48.858;9.184;2023-02-03T10:41:58;7.90;99.90
9219;DHT22;4644;48.858;9.184;2023-02-03T10:44:31;7.90;99.90
9219;DHT22;4644;48.858;9.184;2023-02-03T10:47:06;7.90;99.90
9219;DHT22;4644;48.858;9.184;2023-02-03T10:49:34;8.00;99.90
9219;DHT22;4644;48.858;9.184;2023-02-03T10:52:01;8.20;99.90
9219;DHT22;4644;48.858;9.184;2023-02-03T10:54:31;8.40;99.90
9219;DHT22;4644;48.858;9.184;2023-02-03T10:57:03;8.50;99.90
9219;DHT22;4644;48.858;9.184;2023-02-03T10:59:33;8.40;99.90
9219;DHT22;4644;48.858;9.184;2023-02-03T11:02:07;8.40;99.90
9219;DHT22;4644;48.858;9.184;2023-02-03T11:04:34;8.40;99.90
9219;DHT22;4644;48.858;9.184;2023-02-03T11:07:03;8.40;99.90
9219;DHT22;4644;48.858;9.184;2023-02-03T11:09:33;8.40;99.90
9219;DHT22;4644;48.858;9.184;2023-02-03T11:12:07;8.40;99.90
9219;DHT22;4644;48.858;9.184;2023-02-03T11:14:37;8.30;99.90
9219;DHT22;4644;48.858;9.184;2023-02-03T11:17:08;8.30;99.90
9219;DHT22;4644;48.858;9.184;2023-02-03T11:19:37;8.30;99.90
9219;DHT22;4644;48.858;9.184;2023-02-03T11:22:04;8.30;99.90
9219;DHT22;4644;48.858;9.184;2023-02-03T11:24:35;8.20;99.90
9219;DHT22;4644;48.858;9.184;2023-02-03T11:27:04;8.20;99.90
9219;DHT22;4644;48.858;9.184;2023-02-03T11:29:34;8.20;99.90
9219;DHT22;4644;48.858;9.184;2023-02-03T11:32:15;8.30;99.90
9219;DHT22;4644;48.858;9.184;2023-02-03T11:34:46;8.30;99.90
9219;DHT22;4644;48.858;9.184;2023-02-03T11:37:30;8.30;99.90
9219;DHT22;4644;48.858;9.184;2023-02-03T11:40:22;8.30;99.90
9219;DHT22;4644;48.858;9.184;2023-02-03T11:43:04;8.30;99.90
9219;DHT22;4644;48.858;9.184;2023-02-03T11:45:36;8.30;99.90
9219;DHT22;4644;48.858;9.184;2023-02-03T11:48:17;8.30;99.90
9219;DHT22;4644;48.858;9.184;2023-02-03T11:50:48;8.30;99.90
9219;DHT22;4644;48.858;9.184;2023-02-03T11:53:28;8.30;99.90
9219;DHT22;4644;48.858;9.184;2023-02-03T11:56:16;8.30;99.90
9219;DHT22;4644;48.858;9.184;2023-02-03T11:58:57;8.40;99.90
9219;DHT22;4644;48.858;9.184;2023-02-03T12:01:55;8.50;99.90
9219;DHT22;4644;48.858;9.184;2023-02-03T12:04:43;8.70;99.90
9219;DHT22;4644;48.858;9.184;2023-02-03T12:07:27;8.80;99.90
9219;DHT22;4644;48.858;9.184;2023-02-03T12:10:04;8.70;99.90
9219;DHT22;4644;48.858;9.184;2023-02-03T12:12:50;8.60;99.90
9219;DHT22;4644;48.858;9.184;2023-02-03T12:15:29;8.50;99.90
9219;DHT22;4644;48.858;9.184;2023-02-03T12:18:07;8.40;99.90
9219;DHT22;4644;48.858;9.184;2023-02-03T12:20:46;8.30;99.90
9219;DHT22;4644;48.858;9.184;2023-02-03T12:23:29;8.30;99.90
9219;DHT22;4644;48.858;9.184;2023-02-03T12:26:06;8.20;99.90
9219;DHT22;4644;48.858;9.184;2023-02-03T12:28:44;8.20;99.90
9219;DHT22;4644;48.858;9.184;2023-02-03T12:31:17;8.20;99.90
9219;DHT22;4644;48.858;9.184;2023-02-03T12:33:49;8.10;99.90
9219;DHT22;4644;48.858;9.184;2023-02-03T12:36:22;8.10;99.90
9219;DHT22;4644;48.858;9.184;2023-02-03T12:38:56;8.00;99.90
9219;DHT22;4644;48.858;9.184;2023-02-03T12:41:28;8.00;99.90
9219;DHT22;4644;48.858;9.184;2023-02-03T12:43:59;8.00;99.90
9219;DHT22;4644;48.858;9.184;2023-02-03T12:46:30;8.00;99.90
9219;DHT22;4644;48.858;9.184;2023-02-03T12:49:01;8.00;99.90
9219;DHT22;4644;48.858;9.184;2023-02-03T12:51:36;7.90;99.90
9219;DHT22;4644;48.858;9.184;2023-02-03T12:54:22;8.00;99.90
9219;DHT22;4644;48.858;9.184;2023-02-03T12:56:53;8.00;99.90
9219;DHT22;4644;48.858;9.184;2023-02-03T12:59:22;8.00;99.90
9219;DHT22;4644;48.858;9.184;2023-02-03T13:01:55;8.00;99.90
9219;DHT22;4644;48.858;9.184;2023-02-03T13:04:28;7.90;99.90
9219;DHT22;4644;48.858;9.184;2023-02-03T13:07:03;7.90;99.90
9219;DHT22;4644;48.858;9.184;2023-02-03T13:09:37;8.00;99.90
9219;DHT22;4644;48.858;9.184;2023-02-03T13:12:07;8.00;99.90
9219;DHT22;4644;48.858;9.184;2023-02-03T13:14:41;8.00;99.90
9219;DHT22;4644;48.858;9.184;2023-02-03T13:17:14;8.00;99.90
9219;DHT22;4644;48.858;9.184;2023-02-03T13:19:45;8.00;99.90
9219;DHT22;4644;48.858;9.184;2023-02-03T13:22:15;7.90;99.90
9219;DHT22;4644;48.858;9.184;2023-02-03T13:24:46;8.00;99.90
9219;DHT22;4644;48.858;9.184;2023-02-03T13:27:29;7.90;99.90
9219;DHT22;4644;48.858;9.184;2023-02-03T13:30:32;7.90;99.90
9219;DHT22;4644;48.858;9.184;2023-02-03T13:33:39;7.90;99.90
9219;DHT22;4644;48.858;9.184;2023-02-03T13:36:25;7.90;99.90
9219;DHT22;4644;48.858;9.184;2023-02-03T13:39:24;7.90;99.90
9219;DHT22;4644;48.858;9.184;2023-02-03T13:41:56;7.90;99.90
9219;DHT22;4644;48.858;9.184;2023-02-03T13:44:36;7.90;99.90
9219;DHT22;4644;48.858;9.184;2023-02-03T13:47:03;7.90;99.90
9219;DHT22;4644;48.858;9.184;2023-02-03T13:49:32;7.90;99.90
9219;DHT22;4644;48.858;9.184;2023-02-03T13:52:00;7.90;99.90
9219;DHT22;4644;48.858;9.184;2023-02-03T13:54:32;7.90;99.90
9219;DHT22;4644;48.858;9.184;2023-02-03T13:57:02;7.90;99.90
9219;DHT22;4644;48.858;9.184;2023-02-03T13:59:40;7.90;99.90
9219;DHT22;4644;48.858;9.184;2023-02-03T14:02:38;7.90;99.90
9219;DHT22;4644;48.858;9.184;2023-02-03T14:07:50;7.90;99.90
9219;DHT22;4644;48.858;9.184;2023-02-03T14:10:23;7.90;99.90
9219;DHT22;4644;48.858;9.184;2023-02-03T14:12:59;7.90;99.90
9219;DHT22;4644;48.858;9.184;2023-02-03T14:15:32;7.90;99.90
9219;DHT22;4644;48.858;9.184;2023-02-03T14:18:03;7.90;99.90
9219;DHT22;4644;48.858;9.184;2023-02-03T14:20:52;7.80;99.90
9219;DHT22;4644;48.858;9.184;2023-02-03T14:23:40;7.80;99.90
9219;DHT22;4644;48.858;9.184;2023-02-03T14:26:20;7.80;99.90
9219;DHT22;4644;48.858;9.184;2023-02-03T14:28:48;7.80;99.90
9219;DHT22;4644;48.858;9.184;2023-02-03T14:31:18;7.80;99.90
9219;DHT22;4644;48.858;9.184;2023-02-03T14:33:54;7.80;99.90
9219;DHT22;4644;48.858;9.184;2023-02-03T14:42:35;7.80;99.90
9219;DHT22;4644;48.858;9.184;2023-02-03T14:45:18;7.80;99.90
9219;DHT22;4644;48.858;9.184;2023-02-03T14:47:57;7.80;99.90
9219;DHT22;4644;48.858;9.184;2023-02-03T14:50:36;7.80;99.90
9219;DHT22;4644;48.858;9.184;2023-02-03T14:53:19;7.80;99.90
9219;DHT22;4644;48.858;9.184;2023-02-03T14:55:57;7.90;99.90
9219;DHT22;4644;48.858;9.184;2023-02-03T14:58:34;7.80;99.90
9219;DHT22;4644;48.858;9.184;2023-02-03T15:01:03;7.80;99.90
9219;DHT22;4644;48.858;9.184;2023-02-03T15:03:33;7.80;99.90
9219;DHT22;4644;48.858;9.184;2023-02-03T15:06:04;7.70;99.90
9219;DHT22;4644;48.858;9.184;2023-02-03T15:08:37;7.80;99.90
9219;DHT22;4644;48.858;9.184;2023-02-03T15:11:24;7.80;99.90
9219;DHT22;4644;48.858;9.184;2023-02-03T15:13:53;7.80;99.90
9219;DHT22;4644;48.858;9.184;2023-02-03T15:16:23;7.70;99.90
9219;DHT22;4644;48.858;9.184;2023-02-03T15:18:57;7.70;99.90
9219;DHT22;4644;48.858;9.184;2023-02-03T15:21:25;7.70;99.90
9219;DHT22;4644;48.858;9.184;2023-02-03T15:23:52;7.70;99.90
9219;DHT22;4644;48.858;9.184;2023-02-03T15:26:21;7.70;99.90
9219;DHT22;4644;48.858;9.184;2023-02-03T15:28:58;7.70;99.90
9219;DHT22;4644;48.858;9.184;2023-02-03T15:31:30;7.70;99.90
9219;DHT22;4644;48.858;9.184;2023-02-03T15:34:03;7.70;99.90
9219;DHT22;4644;48.858;9.184;2023-02-03T15:36:36;7.70;99.90
9219;DHT22;4644;48.858;9.184;2023-02-03T15:39:15;7.60;99.90
9219;DHT22;4644;48.858;9.184;2023-02-03T15:41:46;7.70;99.90
9219;DHT22;4644;48.858;9.184;2023-02-03T15:44:23;7.60;99.90
9219;DHT22;4644;48.858;9.184;2023-02-03T15:46:52;7.60;99.90
9219;DHT22;4644;48.858;9.184;2023-02-03T15:49:23;7.60;99.90
9219;DHT22;4644;48.858;9.184;2023-02-03T15:51:55;7.60;99.90
9219;DHT22;4644;48.858;9.184;2023-02-03T15:54:27;7.70;99.90
9219;DHT22;4644;48.858;9.184;2023-02-03T15:56:58;7.70;99.90
9219;DHT22;4644;48.858;9.184;2023-02-03T15:59:31;7.70;99.90
9219;DHT22;4644;48.858;9.184;2023-02-03T16:01:59;7.70;99.90
9219;DHT22;4644;48.858;9.184;2023-02-03T16:04:28;7.60;99.90
9219;DHT22;4644;48.858;9.184;2023-02-03T16:06:56;7.50;99.90
9219;DHT22;4644;48.858;9.184;2023-02-03T16:09:30;7.40;99.90
9219;DHT22;4644;48.858;9.184;2023-02-03T16:12:13;7.30;99.90
9219;DHT22;4644;48.858;9.184;2023-02-03T16:14:42;7.30;99.90
9219;DHT22;4644;48.858;9.184;2023-02-03T16:17:24;7.20;99.90
9219;DHT22;4644;48.858;9.184;2023-02-03T16:23:04;7.10;99.90
9219;DHT22;4644;48.858;9.184;2023-02-03T16:25:33;7.10;99.90
9219;DHT22;4644;48.858;9.184;2023-02-03T16:28:01;7.00;99.90
9219;DHT22;4644;48.858;9.184;2023-02-03T16:30:58;7.10;99.90
9219;DHT22;4644;48.858;9.184;2023-02-03T16:33:44;7.00;99.90
9219;DHT22;4644;48.858;9.184;2023-02-03T16:36:32;7.00;99.90
9219;DHT22;4644;48.858;9.184;2023-02-03T16:39:16;7.00;99.90
9219;DHT22;4644;48.858;9.184;2023-02-03T16:42:08;7.00;99.90
9219;DHT22;4644;48.858;9.184;2023-02-03T16:44:56;7.00;99.90
9219;DHT22;4644;48.858;9.184;2023-02-03T16:47:43;6.90;99.90
9219;DHT22;4644;48.858;9.184;2023-02-03T16:50:28;7.00;99.90
9219;DHT22;4644;48.858;9.184;2023-02-03T16:53:14;7.00;99.90
9219;DHT22;4644;48.858;9.184;2023-02-03T16:55:42;6.90;99.90
9219;DHT22;4644;48.858;9.184;2023-02-03T16:58:09;7.00;99.90
9219;DHT22;4644;48.858;9.184;2023-02-03T17:00:37;7.00;99.90
9219;DHT22;4644;48.858;9.184;2023-02-03T17:03:08;7.00;99.90
9219;DHT22;4644;48.858;9.184;2023-02-03T17:05:36;7.00;99.90